Daily Summary

Last 30 Days

Daily Data | Pacific/Honolulu
as of 6/22/24 12:48 AM HST
Date Daily Max Temp (°F) Time of Max Temp Daily Min Temp (°F) Time of Min Temp Daily Rain (In) Season Precip (In) Wind Spd (mph) Daily Max Wind (mph) Time of Max Wind Max Wind Dir (°) Daily Solar Rad (Cal/cm2) Daily ETo (in) Dew Pt (°F) Max RH (%) Min RH (%) Max Press (inHg) Time of Max Press Min Press (inHg) Time of Min Press MinBV Day (V)
6/21/24 81.9 1432 75.7 2127 0.05 17.30 10.2 28.9 1621 NNE | 21 513 0.185 70.6 88 70 30.12 1007 30.03 1807 12.7
6/20/24 82.4 1324 73.6 0406 0.01 17.25 10.4 32.3 1858 NE | 46 614 0.224 68.5 83 61 30.13 2301 30.01 1438 12.7
6/19/24 83.1 1104 75.1 2339 0.00 17.24 10.3 31.4 1655 NE | 43 515 0.215 67.0 79 55 30.14 2329 30.02 1457 12.7
6/18/24 80.8 1212 74.5 0707 0.00 17.24 8.0 30.4 1142 NE | 56 506 0.182 68.8 85 67 30.14 0826 30.05 1653 12.7
6/17/24 82.1 1435 74.1 0525 0.01 17.24 7.9 28.2 1402 NNE | 13 484 0.178 68.9 86 64 30.16 1022 30.07 1746 12.7
6/16/24 82.5 1156 74.7 2358 0.04 17.23 8.4 29.7 1259 NNE | 20 632 0.231 67.9 86 58 30.15 2258 30.04 1704 12.7
6/15/24 84.2 1250 76.0 0312 0.00 17.19 8.6 29.0 1558 NNE | 25 648 0.240 68.0 78 58 30.14 2304 30.02 1727 12.7
6/14/24 82.5 1245 76.4 0207 0.00 17.19 8.0 24.8 1446 NNE | 26 515 0.200 67.7 75 60 30.15 2237 30.04 0340 12.7
6/13/24 83.6 1227 75.6 0330 0.01 17.19 8.4 25.6 2038 NE | 38 600 0.224 67.6 78 58 30.13 0905 30.01 1604 12.6
6/12/24 82.2 1257 74.5 0432 0.03 17.18 7.0 22.7 1929 NE | 44 421 0.154 70.4 89 67 30.13 0001 30.04 1728 12.6
6/11/24 83.7 1251 76.1 0347 0.00 17.15 7.5 23.0 1702 NE | 41 606 0.216 69.0 83 61 30.19 0001 30.05 1659 12.6
6/10/24 83.8 1139 76.4 0611 0.00 17.15 8.7 26.2 0557 NNE | 33 636 0.241 67.6 75 58 30.20 2316 30.09 0511 12.6
6/9/24 82.7 1324 75.7 0445 0.00 17.15 8.0 26.1 1727 NNE | 24 646 0.234 67.7 76 59 30.20 2251 30.08 0341 12.7
6/8/24 85.7 1130 73.9 0602 0.00 17.15 6.6 26.1 1916 NNE | 26 659 0.235 69.4 85 58 30.18 0001 30.09 1926 12.7
6/7/24 85.9 1235 71.9 0559 0.00 17.15 5.2 21.3 1633 NE | 42 645 0.227 69.7 88 58 30.19 2243 30.03 1558 12.7
6/6/24 86.0 1034 71.8 0421 0.00 17.15 3.0 13.6 1844 ENE | 58 418 0.150 70.3 90 58 30.14 0001 30.03 1719 12.7
6/5/24 83.0 1645 76.0 2359 0.00 17.15 5.4 19.2 0024 ENE | 75 475 0.172 69.2 79 63 30.16 1023 30.04 1632 12.7
6/4/24 82.7 1259 76.8 0548 0.00 17.15 8.0 23.7 0032 ENE | 61 418 0.159 70.4 80 68 30.17 0942 30.08 1805 12.7
6/3/24 81.7 1200 75.0 0255 0.01 17.15 8.7 28.3 1211 NE | 36 516 0.182 70.2 84 68 30.17 2150 30.08 1614 12.7
6/2/24 81.4 1410 74.1 2100 0.04 17.14 10.3 31.4 1418 NNE | 31 578 0.218 67.0 84 60 30.17 2146 30.07 1519 12.7
6/1/24 81.1 1338 75.0 1843 0.00 17.10 9.8 35.0 1756 NE | 39 590 0.222 66.0 81 57 30.18 2248 30.05 1541 12.7
5/31/24 81.1 1441 74.1 0323 0.00 17.10 9.1 30.3 1326 NE | 34 542 0.200 67.4 80 64 30.17 0835 30.07 1623 12.7
5/30/24 81.4 1356 75.3 0412 0.00 17.10 8.8 28.3 1212 NE | 44 652 0.234 67.1 77 60 30.18 2211 30.07 1619 12.7
5/29/24 81.7 1535 74.4 0514 0.00 17.10 6.8 24.6 1711 NNE | 20 627 0.209 68.7 86 64 30.18 2232 30.05 1642 12.7
5/28/24 82.2 1058 74.8 0458 0.02 17.10 6.7 23.8 0603 ENE | 72 535 0.184 69.2 85 63 30.15 2158 30.03 0418 12.7
5/27/24 81.8 1201 73.8 0631 0.01 17.08 7.0 24.1 1346 NE | 54 603 0.204 68.5 86 56 30.13 2128 30.04 0515 12.7
5/26/24 81.6 1353 74.2 2351 0.00 17.07 5.7 19.6 1133 NE | 39 464 0.169 67.7 84 61 30.12 2306 30.02 1723 12.7
5/25/24 82.1 1324 74.5 2155 0.01 17.07 7.2 25.6 0028 E | 81 572 0.205 67.7 82 62 30.15 0001 30.06 0546 12.7
5/24/24 82.0 1437 75.2 0403 0.00 17.06 8.2 26.3 1051 NE | 34 655 0.233 66.9 79 57 30.17 2145 30.08 1725 12.7
5/23/24 81.1 1224 75.0 0425 0.00 17.06 7.8 27.5 1440 NE | 51 564 0.194 69.5 85 67 30.19 2238 30.05 1637 12.7
Max 86.0 - 76.8 - 0.05 17.30 10.4 35.0 - - 659 0.241 70.6 90 70 30.20 - 30.09 - 12.7
Avg - - - - - - 7.9 - - - - - 68.5 - - - - - - -
Min 80.8 - 71.8 - 0.00 17.06 3.0 13.6 - - 418 0.150 66.0 75 55 30.12 - 30.01 - 12.6